Terminal Aerodrome Forecast
Issued by NWS

Home | Current Version | Previous Version | Text Only | Print | Product List | Glossary On
Versions: 1 2 3 4 5 6 7 8 9 10 11 12 13 14 15
000
FTUS44 KEPZ 031754
TAFTCS
TAF
KTCS 031754Z 0318/0418 16007KT P6SM SCT060 BKN120 BKN200
     FM032000 28010KT P6SM VCTS SCT060CB BKN120
      TEMPO 0322/0402 VRB25G40KT 2SM TSRA BKN050CB OVC100
     FM040900 33006KT P6SM SCT100 SCT250
     FM041500 02006KT P6SM SCT100 SCT250=

USA.gov is the U.S. government's official web portal to all federal, state and local government web resources and services.